sensor_id;sensor_type;location;lat;lon;timestamp;P1;durP1;ratioP1;P2;durP2;ratioP2
17147;SDS011;8689;47.364;8.796;2023-05-31T00:02:06;8.20;;;5.97;;
17147;SDS011;8689;47.364;8.796;2023-05-31T00:04:33;7.10;;;4.93;;
17147;SDS011;8689;47.364;8.796;2023-05-31T00:07:01;5.73;;;5.17;;
17147;SDS011;8689;47.364;8.796;2023-05-31T00:09:28;15.40;;;5.17;;
17147;SDS011;8689;47.364;8.796;2023-05-31T00:11:57;7.67;;;5.60;;
17147;SDS011;8689;47.364;8.796;2023-05-31T00:14:24;7.80;;;6.27;;
17147;SDS011;8689;47.364;8.796;2023-05-31T00:16:51;5.70;;;4.87;;
17147;SDS011;8689;47.364;8.796;2023-05-31T00:19:19;8.57;;;6.30;;
17147;SDS011;8689;47.364;8.796;2023-05-31T00:21:46;9.33;;;5.27;;
17147;SDS011;8689;47.364;8.796;2023-05-31T00:24:15;8.23;;;5.63;;
17147;SDS011;8689;47.364;8.796;2023-05-31T00:26:43;8.70;;;5.90;;
17147;SDS011;8689;47.364;8.796;2023-05-31T00:29:12;6.33;;;5.43;;
17147;SDS011;8689;47.364;8.796;2023-05-31T00:31:40;7.17;;;5.60;;
17147;SDS011;8689;47.364;8.796;2023-05-31T00:34:08;8.10;;;5.40;;
17147;SDS011;8689;47.364;8.796;2023-05-31T00:36:37;10.17;;;5.97;;
17147;SDS011;8689;47.364;8.796;2023-05-31T00:39:04;7.27;;;5.77;;
17147;SDS011;8689;47.364;8.796;2023-05-31T00:41:31;9.53;;;6.13;;
17147;SDS011;8689;47.364;8.796;2023-05-31T00:43:58;7.97;;;6.07;;
17147;SDS011;8689;47.364;8.796;2023-05-31T00:46:28;7.03;;;5.43;;
17147;SDS011;8689;47.364;8.796;2023-05-31T00:48:57;6.40;;;5.70;;
17147;SDS011;8689;47.364;8.796;2023-05-31T00:51:27;6.87;;;5.30;;
17147;SDS011;8689;47.364;8.796;2023-05-31T00:53:56;7.23;;;5.67;;
17147;SDS011;8689;47.364;8.796;2023-05-31T00:56:25;7.50;;;5.93;;
17147;SDS011;8689;47.364;8.796;2023-05-31T00:58:53;8.67;;;6.37;;
17147;SDS011;8689;47.364;8.796;2023-05-31T01:01:22;6.17;;;5.33;;
17147;SDS011;8689;47.364;8.796;2023-05-31T01:03:59;12.40;;;7.20;;
17147;SDS011;8689;47.364;8.796;2023-05-31T01:06:27;13.00;;;6.63;;
17147;SDS011;8689;47.364;8.796;2023-05-31T01:08:57;9.77;;;6.33;;
17147;SDS011;8689;47.364;8.796;2023-05-31T01:11:30;8.60;;;6.17;;
17147;SDS011;8689;47.364;8.796;2023-05-31T01:14:13;6.73;;;5.57;;
17147;SDS011;8689;47.364;8.796;2023-05-31T01:16:47;9.17;;;6.53;;
17147;SDS011;8689;47.364;8.796;2023-05-31T01:19:25;6.90;;;5.53;;
17147;SDS011;8689;47.364;8.796;2023-05-31T01:22:07;7.30;;;5.53;;
17147;SDS011;8689;47.364;8.796;2023-05-31T01:24:43;10.17;;;6.40;;
17147;SDS011;8689;47.364;8.796;2023-05-31T01:27:21;7.97;;;6.07;;
17147;SDS011;8689;47.364;8.796;2023-05-31T01:29:49;12.23;;;6.93;;
17147;SDS011;8689;47.364;8.796;2023-05-31T01:32:17;8.17;;;5.97;;
17147;SDS011;8689;47.364;8.796;2023-05-31T01:34:47;9.73;;;6.20;;
17147;SDS011;8689;47.364;8.796;2023-05-31T01:37:15;6.90;;;6.20;;
17147;SDS011;8689;47.364;8.796;2023-05-31T01:39:43;7.37;;;5.90;;
17147;SDS011;8689;47.364;8.796;2023-05-31T01:42:12;7.50;;;6.30;;
17147;SDS011;8689;47.364;8.796;2023-05-31T01:44:42;10.17;;;6.53;;
17147;SDS011;8689;47.364;8.796;2023-05-31T01:47:12;10.23;;;6.00;;
17147;SDS011;8689;47.364;8.796;2023-05-31T01:49:40;8.50;;;6.77;;
17147;SDS011;8689;47.364;8.796;2023-05-31T01:52:09;6.50;;;5.53;;
17147;SDS011;8689;47.364;8.796;2023-05-31T01:54:40;9.07;;;6.00;;
17147;SDS011;8689;47.364;8.796;2023-05-31T01:57:08;9.83;;;6.13;;
17147;SDS011;8689;47.364;8.796;2023-05-31T01:59:36;9.10;;;5.80;;
17147;SDS011;8689;47.364;8.796;2023-05-31T02:02:06;11.73;;;6.60;;
17147;SDS011;8689;47.364;8.796;2023-05-31T02:04:34;10.90;;;6.37;;
17147;SDS011;8689;47.364;8.796;2023-05-31T02:07:01;7.37;;;5.93;;
17147;SDS011;8689;47.364;8.796;2023-05-31T02:09:29;8.33;;;6.43;;
17147;SDS011;8689;47.364;8.796;2023-05-31T02:11:56;12.20;;;6.97;;
17147;SDS011;8689;47.364;8.796;2023-05-31T02:14:23;11.27;;;6.60;;
17147;SDS011;8689;47.364;8.796;2023-05-31T02:16:51;9.63;;;6.53;;
17147;SDS011;8689;47.364;8.796;2023-05-31T02:19:20;15.37;;;6.53;;
17147;SDS011;8689;47.364;8.796;2023-05-31T02:21:50;12.50;;;6.90;;
17147;SDS011;8689;47.364;8.796;2023-05-31T02:24:18;9.27;;;6.53;;
17147;SDS011;8689;47.364;8.796;2023-05-31T02:26:46;8.33;;;6.93;;
17147;SDS011;8689;47.364;8.796;2023-05-31T02:29:14;11.33;;;6.73;;
17147;SDS011;8689;47.364;8.796;2023-05-31T02:31:41;11.07;;;6.80;;
17147;SDS011;8689;47.364;8.796;2023-05-31T02:34:09;12.07;;;6.93;;
17147;SDS011;8689;47.364;8.796;2023-05-31T02:36:39;10.20;;;6.37;;
17147;SDS011;8689;47.364;8.796;2023-05-31T02:39:06;14.33;;;6.53;;
17147;SDS011;8689;47.364;8.796;2023-05-31T02:41:33;16.87;;;7.60;;
17147;SDS011;8689;47.364;8.796;2023-05-31T02:44:01;10.03;;;7.60;;
17147;SDS011;8689;47.364;8.796;2023-05-31T02:46:28;12.47;;;6.33;;
17147;SDS011;8689;47.364;8.796;2023-05-31T02:48:56;12.03;;;7.77;;
17147;SDS011;8689;47.364;8.796;2023-05-31T02:51:23;9.47;;;7.23;;
17147;SDS011;8689;47.364;8.796;2023-05-31T02:53:52;7.80;;;7.00;;
17147;SDS011;8689;47.364;8.796;2023-05-31T02:56:19;11.57;;;7.27;;
17147;SDS011;8689;47.364;8.796;2023-05-31T02:58:46;9.93;;;6.93;;
17147;SDS011;8689;47.364;8.796;2023-05-31T03:01:14;9.60;;;6.70;;
17147;SDS011;8689;47.364;8.796;2023-05-31T03:03:41;9.63;;;6.90;;
17147;SDS011;8689;47.364;8.796;2023-05-31T03:06:10;9.33;;;7.17;;
17147;SDS011;8689;47.364;8.796;2023-05-31T03:08:39;12.07;;;6.33;;
17147;SDS011;8689;47.364;8.796;2023-05-31T03:11:08;8.00;;;6.77;;
17147;SDS011;8689;47.364;8.796;2023-05-31T03:13:35;11.17;;;6.50;;
17147;SDS011;8689;47.364;8.796;2023-05-31T03:16:02;8.10;;;7.07;;
17147;SDS011;8689;47.364;8.796;2023-05-31T03:18:30;15.60;;;7.20;;
17147;SDS011;8689;47.364;8.796;2023-05-31T03:20:58;13.27;;;7.20;;
17147;SDS011;8689;47.364;8.796;2023-05-31T03:23:25;9.57;;;6.97;;
17147;SDS011;8689;47.364;8.796;2023-05-31T03:25:53;12.03;;;7.53;;
17147;SDS011;8689;47.364;8.796;2023-05-31T03:28:22;15.73;;;8.60;;
17147;SDS011;8689;47.364;8.796;2023-05-31T03:30:49;8.63;;;6.60;;
17147;SDS011;8689;47.364;8.796;2023-05-31T03:33:17;13.80;;;7.60;;
17147;SDS011;8689;47.364;8.796;2023-05-31T03:35:45;13.03;;;7.10;;
17147;SDS011;8689;47.364;8.796;2023-05-31T03:38:12;9.77;;;7.17;;
17147;SDS011;8689;47.364;8.796;2023-05-31T03:40:40;8.13;;;6.97;;
17147;SDS011;8689;47.364;8.796;2023-05-31T03:43:08;9.30;;;7.33;;
17147;SDS011;8689;47.364;8.796;2023-05-31T03:45:37;10.93;;;7.43;;
17147;SDS011;8689;47.364;8.796;2023-05-31T03:48:05;11.00;;;7.93;;
17147;SDS011;8689;47.364;8.796;2023-05-31T03:50:32;10.03;;;7.80;;
17147;SDS011;8689;47.364;8.796;2023-05-31T03:53:00;11.97;;;8.23;;
17147;SDS011;8689;47.364;8.796;2023-05-31T03:55:29;9.10;;;7.80;;
17147;SDS011;8689;47.364;8.796;2023-05-31T03:57:57;12.60;;;8.20;;
17147;SDS011;8689;47.364;8.796;2023-05-31T04:00:24;12.17;;;8.70;;
17147;SDS011;8689;47.364;8.796;2023-05-31T04:02:54;9.13;;;6.30;;
17147;SDS011;8689;47.364;8.796;2023-05-31T04:05:21;10.80;;;7.80;;
17147;SDS011;8689;47.364;8.796;2023-05-31T04:07:58;8.67;;;7.27;;
17147;SDS011;8689;47.364;8.796;2023-05-31T04:10:28;10.40;;;6.80;;
17147;SDS011;8689;47.364;8.796;2023-05-31T04:12:58;10.33;;;7.80;;
17147;SDS011;8689;47.364;8.796;2023-05-31T04:15:26;8.77;;;7.53;;
17147;SDS011;8689;47.364;8.796;2023-05-31T04:17:55;10.90;;;7.20;;
17147;SDS011;8689;47.364;8.796;2023-05-31T04:20:22;13.03;;;7.27;;
17147;SDS011;8689;47.364;8.796;2023-05-31T04:22:49;14.20;;;7.70;;
17147;SDS011;8689;47.364;8.796;2023-05-31T04:25:18;14.33;;;7.33;;
17147;SDS011;8689;47.364;8.796;2023-05-31T04:27:45;10.63;;;7.60;;
17147;SDS011;8689;47.364;8.796;2023-05-31T04:30:14;13.83;;;7.97;;
17147;SDS011;8689;47.364;8.796;2023-05-31T04:32:41;10.33;;;7.00;;
17147;SDS011;8689;47.364;8.796;2023-05-31T04:35:11;10.43;;;7.13;;
17147;SDS011;8689;47.364;8.796;2023-05-31T04:37:39;11.00;;;7.37;;
17147;SDS011;8689;47.364;8.796;2023-05-31T04:40:07;12.00;;;7.67;;
17147;SDS011;8689;47.364;8.796;2023-05-31T04:42:35;15.97;;;6.70;;
17147;SDS011;8689;47.364;8.796;2023-05-31T04:45:04;16.20;;;7.07;;
17147;SDS011;8689;47.364;8.796;2023-05-31T04:47:32;8.87;;;7.23;;
17147;SDS011;8689;47.364;8.796;2023-05-31T04:50:00;9.93;;;8.57;;
17147;SDS011;8689;47.364;8.796;2023-05-31T04:52:29;10.50;;;7.23;;
17147;SDS011;8689;47.364;8.796;2023-05-31T04:54:58;9.47;;;7.13;;
17147;SDS011;8689;47.364;8.796;2023-05-31T04:57:27;9.23;;;7.10;;
17147;SDS011;8689;47.364;8.796;2023-05-31T05:03:16;8.73;;;7.30;;
17147;SDS011;8689;47.364;8.796;2023-05-31T05:05:44;12.60;;;7.37;;
17147;SDS011;8689;47.364;8.796;2023-05-31T05:08:18;10.93;;;7.43;;
17147;SDS011;8689;47.364;8.796;2023-05-31T05:11:04;11.97;;;7.00;;
17147;SDS011;8689;47.364;8.796;2023-05-31T05:13:43;10.93;;;7.33;;
17147;SDS011;8689;47.364;8.796;2023-05-31T05:16:19;10.97;;;8.07;;
17147;SDS011;8689;47.364;8.796;2023-05-31T05:18:46;11.67;;;7.50;;
17147;SDS011;8689;47.364;8.796;2023-05-31T05:21:17;11.70;;;7.47;;
17147;SDS011;8689;47.364;8.796;2023-05-31T05:23:50;9.37;;;7.67;;
17147;SDS011;8689;47.364;8.796;2023-05-31T05:26:19;12.27;;;8.30;;
17147;SDS011;8689;47.364;8.796;2023-05-31T05:28:50;11.10;;;7.37;;
17147;SDS011;8689;47.364;8.796;2023-05-31T05:31:17;9.00;;;7.73;;
17147;SDS011;8689;47.364;8.796;2023-05-31T05:33:45;9.87;;;7.43;;
17147;SDS011;8689;47.364;8.796;2023-05-31T05:36:43;10.37;;;7.50;;
17147;SDS011;8689;47.364;8.796;2023-05-31T05:39:23;15.13;;;8.00;;
17147;SDS011;8689;47.364;8.796;2023-05-31T05:42:06;10.70;;;6.83;;
17147;SDS011;8689;47.364;8.796;2023-05-31T05:44:39;8.27;;;6.87;;
17147;SDS011;8689;47.364;8.796;2023-05-31T05:47:13;13.90;;;7.10;;
17147;SDS011;8689;47.364;8.796;2023-05-31T05:49:43;11.93;;;7.00;;
17147;SDS011;8689;47.364;8.796;2023-05-31T05:52:10;10.63;;;6.80;;
17147;SDS011;8689;47.364;8.796;2023-05-31T05:54:44;13.00;;;6.33;;
17147;SDS011;8689;47.364;8.796;2023-05-31T05:57:11;10.50;;;6.33;;
17147;SDS011;8689;47.364;8.796;2023-05-31T05:59:38;9.17;;;6.60;;
17147;SDS011;8689;47.364;8.796;2023-05-31T06:02:17;11.60;;;6.17;;
17147;SDS011;8689;47.364;8.796;2023-05-31T06:05:03;9.13;;;6.13;;
17147;SDS011;8689;47.364;8.796;2023-05-31T06:07:44;6.57;;;5.77;;
17147;SDS011;8689;47.364;8.796;2023-05-31T06:10:14;12.30;;;6.70;;
17147;SDS011;8689;47.364;8.796;2023-05-31T06:12:41;10.30;;;6.13;;
17147;SDS011;8689;47.364;8.796;2023-05-31T06:15:09;10.70;;;6.53;;
17147;SDS011;8689;47.364;8.796;2023-05-31T06:17:36;11.03;;;5.83;;
17147;SDS011;8689;47.364;8.796;2023-05-31T06:20:05;7.93;;;6.07;;
17147;SDS011;8689;47.364;8.796;2023-05-31T06:22:35;12.77;;;6.80;;
17147;SDS011;8689;47.364;8.796;2023-05-31T06:25:03;12.53;;;5.60;;
17147;SDS011;8689;47.364;8.796;2023-05-31T06:27:32;9.33;;;6.07;;
17147;SDS011;8689;47.364;8.796;2023-05-31T06:29:59;7.73;;;6.43;;
17147;SDS011;8689;47.364;8.796;2023-05-31T06:32:26;10.67;;;6.23;;
17147;SDS011;8689;47.364;8.796;2023-05-31T06:34:53;11.37;;;6.40;;
17147;SDS011;8689;47.364;8.796;2023-05-31T06:37:20;6.17;;;5.53;;
17147;SDS011;8689;47.364;8.796;2023-05-31T06:39:48;7.40;;;5.10;;
17147;SDS011;8689;47.364;8.796;2023-05-31T06:42:15;11.17;;;6.20;;
17147;SDS011;8689;47.364;8.796;2023-05-31T06:44:43;7.00;;;5.90;;
17147;SDS011;8689;47.364;8.796;2023-05-31T06:47:11;8.50;;;5.63;;
17147;SDS011;8689;47.364;8.796;2023-05-31T06:49:39;13.53;;;5.93;;
17147;SDS011;8689;47.364;8.796;2023-05-31T08:58:07;11.30;;;5.32;;
17147;SDS011;8689;47.364;8.796;2023-05-31T09:07:59;11.00;;;5.63;;
17147;SDS011;8689;47.364;8.796;2023-05-31T09:10:30;11.63;;;5.27;;
17147;SDS011;8689;47.364;8.796;2023-05-31T09:13:17;12.03;;;5.60;;
17147;SDS011;8689;47.364;8.796;2023-05-31T09:15:46;7.82;;;4.80;;
17147;SDS011;8689;47.364;8.796;2023-05-31T09:18:15;7.10;;;4.93;;
17147;SDS011;8689;47.364;8.796;2023-05-31T09:20:46;11.83;;;4.80;;
17147;SDS011;8689;47.364;8.796;2023-05-31T09:23:13;9.90;;;5.60;;
17147;SDS011;8689;47.364;8.796;2023-05-31T09:25:53;13.93;;;5.60;;
17147;SDS011;8689;47.364;8.796;2023-05-31T09:29:15;8.07;;;5.45;;
17147;SDS011;8689;47.364;8.796;2023-05-31T09:32:06;9.52;;;5.38;;
17147;SDS011;8689;47.364;8.796;2023-05-31T09:34:34;9.02;;;5.20;;
17147;SDS011;8689;47.364;8.796;2023-05-31T09:37:02;7.43;;;5.25;;
17147;SDS011;8689;47.364;8.796;2023-05-31T09:39:53;9.50;;;5.05;;
17147;SDS011;8689;47.364;8.796;2023-05-31T09:42:26;9.18;;;5.43;;
17147;SDS011;8689;47.364;8.796;2023-05-31T09:44:56;9.80;;;5.15;;
17147;SDS011;8689;47.364;8.796;2023-05-31T09:47:25;10.65;;;5.30;;
17147;SDS011;8689;47.364;8.796;2023-05-31T09:49:52;9.10;;;5.60;;
17147;SDS011;8689;47.364;8.796;2023-05-31T09:52:22;11.45;;;6.40;;
17147;SDS011;8689;47.364;8.796;2023-05-31T09:54:54;9.82;;;5.70;;
17147;SDS011;8689;47.364;8.796;2023-05-31T09:57:28;8.30;;;5.28;;
17147;SDS011;8689;47.364;8.796;2023-05-31T09:59:57;7.25;;;5.63;;
17147;SDS011;8689;47.364;8.796;2023-05-31T10:02:26;9.52;;;5.63;;
17147;SDS011;8689;47.364;8.796;2023-05-31T10:04:54;12.77;;;5.32;;
17147;SDS011;8689;47.364;8.796;2023-05-31T10:07:22;5.60;;;4.15;;
17147;SDS011;8689;47.364;8.796;2023-05-31T10:09:50;7.72;;;4.82;;
17147;SDS011;8689;47.364;8.796;2023-05-31T10:12:17;9.85;;;5.38;;
17147;SDS011;8689;47.364;8.796;2023-05-31T11:26:53;8.40;;;4.18;;
17147;SDS011;8689;47.364;8.796;2023-05-31T11:29:20;5.28;;;3.97;;
17147;SDS011;8689;47.364;8.796;2023-05-31T11:31:59;8.70;;;4.57;;
17147;SDS011;8689;47.364;8.796;2023-05-31T11:34:27;7.00;;;4.30;;
17147;SDS011;8689;47.364;8.796;2023-05-31T11:36:58;12.18;;;4.50;;
17147;SDS011;8689;47.364;8.796;2023-05-31T11:39:32;6.38;;;4.32;;
17147;SDS011;8689;47.364;8.796;2023-05-31T11:42:03;5.55;;;4.20;;
17147;SDS011;8689;47.364;8.796;2023-05-31T11:44:32;6.68;;;4.80;;
17147;SDS011;8689;47.364;8.796;2023-05-31T11:47:02;9.80;;;4.35;;
17147;SDS011;8689;47.364;8.796;2023-05-31T11:49:31;5.70;;;3.90;;
17147;SDS011;8689;47.364;8.796;2023-05-31T11:55:00;5.63;;;3.90;;
17147;SDS011;8689;47.364;8.796;2023-05-31T11:57:38;10.05;;;5.13;;
17147;SDS011;8689;47.364;8.796;2023-05-31T12:00:08;8.20;;;4.35;;
17147;SDS011;8689;47.364;8.796;2023-05-31T12:02:36;7.32;;;4.20;;
17147;SDS011;8689;47.364;8.796;2023-05-31T12:05:04;5.72;;;3.90;;
17147;SDS011;8689;47.364;8.796;2023-05-31T12:07:31;8.70;;;3.83;;
17147;SDS011;8689;47.364;8.796;2023-05-31T12:09:59;11.88;;;4.05;;
17147;SDS011;8689;47.364;8.796;2023-05-31T12:12:26;6.10;;;3.75;;
17147;SDS011;8689;47.364;8.796;2023-05-31T12:14:55;10.10;;;3.33;;
17147;SDS011;8689;47.364;8.796;2023-05-31T12:17:22;8.15;;;4.32;;
17147;SDS011;8689;47.364;8.796;2023-05-31T12:19:49;4.93;;;3.80;;
17147;SDS011;8689;47.364;8.796;2023-05-31T12:22:16;6.65;;;4.10;;
17147;SDS011;8689;47.364;8.796;2023-05-31T12:24:47;10.38;;;3.63;;
17147;SDS011;8689;47.364;8.796;2023-05-31T12:27:15;6.55;;;4.28;;
17147;SDS011;8689;47.364;8.796;2023-05-31T12:29:42;8.73;;;4.28;;
17147;SDS011;8689;47.364;8.796;2023-05-31T12:32:11;18.98;;;3.78;;
17147;SDS011;8689;47.364;8.796;2023-05-31T12:34:38;5.60;;;3.53;;
17147;SDS011;8689;47.364;8.796;2023-05-31T12:37:08;6.03;;;3.55;;
17147;SDS011;8689;47.364;8.796;2023-05-31T12:39:36;6.93;;;3.70;;
17147;SDS011;8689;47.364;8.796;2023-05-31T12:42:05;9.25;;;4.10;;
17147;SDS011;8689;47.364;8.796;2023-05-31T12:44:37;6.90;;;3.38;;
17147;SDS011;8689;47.364;8.796;2023-05-31T12:47:13;6.97;;;3.65;;
17147;SDS011;8689;47.364;8.796;2023-05-31T12:49:43;7.40;;;3.63;;
17147;SDS011;8689;47.364;8.796;2023-05-31T12:52:14;8.40;;;3.70;;
17147;SDS011;8689;47.364;8.796;2023-05-31T12:56:04;10.40;;;3.55;;
17147;SDS011;8689;47.364;8.796;2023-05-31T12:58:06;8.50;;;4.13;;
17147;SDS011;8689;47.364;8.796;2023-05-31T13:00:39;6.47;;;3.90;;
17147;SDS011;8689;47.364;8.796;2023-05-31T13:03:10;8.82;;;3.55;;
17147;SDS011;8689;47.364;8.796;2023-05-31T13:05:38;7.97;;;3.08;;
17147;SDS011;8689;47.364;8.796;2023-05-31T13:08:05;4.10;;;2.97;;
17147;SDS011;8689;47.364;8.796;2023-05-31T13:10:32;5.13;;;3.55;;
17147;SDS011;8689;47.364;8.796;2023-05-31T13:13:01;10.13;;;4.18;;
17147;SDS011;8689;47.364;8.796;2023-05-31T13:15:28;10.45;;;3.90;;
17147;SDS011;8689;47.364;8.796;2023-05-31T13:17:56;7.97;;;3.80;;
17147;SDS011;8689;47.364;8.796;2023-05-31T13:20:24;5.57;;;3.70;;
17147;SDS011;8689;47.364;8.796;2023-05-31T13:22:51;6.32;;;3.58;;
17147;SDS011;8689;47.364;8.796;2023-05-31T13:25:20;5.63;;;2.90;;
17147;SDS011;8689;47.364;8.796;2023-05-31T13:27:47;8.13;;;3.75;;
17147;SDS011;8689;47.364;8.796;2023-05-31T13:30:15;9.27;;;4.10;;
17147;SDS011;8689;47.364;8.796;2023-05-31T13:32:42;11.80;;;3.97;;
17147;SDS011;8689;47.364;8.796;2023-05-31T13:35:11;7.53;;;3.42;;
17147;SDS011;8689;47.364;8.796;2023-05-31T13:37:41;7.43;;;3.75;;
17147;SDS011;8689;47.364;8.796;2023-05-31T13:40:09;7.30;;;2.95;;
17147;SDS011;8689;47.364;8.796;2023-05-31T13:42:42;7.35;;;3.70;;
17147;SDS011;8689;47.364;8.796;2023-05-31T13:45:24;10.90;;;4.60;;
17147;SDS011;8689;47.364;8.796;2023-05-31T13:47:53;6.72;;;3.50;;
17147;SDS011;8689;47.364;8.796;2023-05-31T13:50:25;6.78;;;3.22;;
17147;SDS011;8689;47.364;8.796;2023-05-31T13:52:59;7.00;;;3.45;;
17147;SDS011;8689;47.364;8.796;2023-05-31T13:55:52;9.13;;;3.38;;
17147;SDS011;8689;47.364;8.796;2023-05-31T13:58:23;7.35;;;3.47;;
17147;SDS011;8689;47.364;8.796;2023-05-31T14:01:38;5.57;;;3.53;;
17147;SDS011;8689;47.364;8.796;2023-05-31T14:04:06;4.13;;;3.47;;
17147;SDS011;8689;47.364;8.796;2023-05-31T14:06:37;8.18;;;4.22;;
17147;SDS011;8689;47.364;8.796;2023-05-31T14:09:07;5.63;;;3.20;;
17147;SDS011;8689;47.364;8.796;2023-05-31T14:11:38;7.53;;;3.42;;
17147;SDS011;8689;47.364;8.796;2023-05-31T14:14:17;5.75;;;3.58;;
17147;SDS011;8689;47.364;8.796;2023-05-31T14:16:47;5.22;;;2.47;;
17147;SDS011;8689;47.364;8.796;2023-05-31T14:19:17;4.47;;;3.38;;
17147;SDS011;8689;47.364;8.796;2023-05-31T14:21:48;5.63;;;3.20;;
17147;SDS011;8689;47.364;8.796;2023-05-31T14:27:06;5.18;;;3.30;;
17147;SDS011;8689;47.364;8.796;2023-05-31T14:29:51;9.70;;;4.10;;
17147;SDS011;8689;47.364;8.796;2023-05-31T14:32:28;3.72;;;3.00;;
17147;SDS011;8689;47.364;8.796;2023-05-31T14:34:58;8.98;;;3.28;;
17147;SDS011;8689;47.364;8.796;2023-05-31T14:37:29;6.65;;;3.50;;
17147;SDS011;8689;47.364;8.796;2023-05-31T14:40:02;8.23;;;2.90;;
17147;SDS011;8689;47.364;8.796;2023-05-31T14:42:30;8.00;;;3.13;;
17147;SDS011;8689;47.364;8.796;2023-05-31T14:44:57;5.00;;;3.50;;
17147;SDS011;8689;47.364;8.796;2023-05-31T14:47:28;5.57;;;3.63;;
17147;SDS011;8689;47.364;8.796;2023-05-31T14:49:55;10.88;;;3.40;;
17147;SDS011;8689;47.364;8.796;2023-05-31T14:52:25;6.63;;;3.70;;
17147;SDS011;8689;47.364;8.796;2023-05-31T14:54:52;4.10;;;3.00;;
17147;SDS011;8689;47.364;8.796;2023-05-31T14:57:20;12.43;;;3.65;;
17147;SDS011;8689;47.364;8.796;2023-05-31T14:59:47;6.10;;;3.85;;
17147;SDS011;8689;47.364;8.796;2023-05-31T15:02:14;7.25;;;3.33;;
17147;SDS011;8689;47.364;8.796;2023-05-31T15:04:41;6.38;;;2.97;;
17147;SDS011;8689;47.364;8.796;2023-05-31T15:07:08;7.50;;;3.13;;
17147;SDS011;8689;47.364;8.796;2023-05-31T15:09:36;9.25;;;3.40;;
17147;SDS011;8689;47.364;8.796;2023-05-31T15:12:03;7.03;;;3.20;;
17147;SDS011;8689;47.364;8.796;2023-05-31T15:14:33;7.68;;;3.00;;
17147;SDS011;8689;47.364;8.796;2023-05-31T15:17:01;6.10;;;3.58;;
17147;SDS011;8689;47.364;8.796;2023-05-31T15:19:29;12.75;;;3.50;;
17147;SDS011;8689;47.364;8.796;2023-05-31T15:21:56;5.10;;;2.97;;
17147;SDS011;8689;47.364;8.796;2023-05-31T15:24:23;9.52;;;3.28;;
17147;SDS011;8689;47.364;8.796;2023-05-31T15:26:52;6.35;;;3.38;;
17147;SDS011;8689;47.364;8.796;2023-05-31T15:29:19;6.18;;;3.65;;
17147;SDS011;8689;47.364;8.796;2023-05-31T15:31:49;11.05;;;3.50;;
17147;SDS011;8689;47.364;8.796;2023-05-31T15:34:18;8.63;;;3.65;;
17147;SDS011;8689;47.364;8.796;2023-05-31T15:36:45;8.68;;;3.03;;
17147;SDS011;8689;47.364;8.796;2023-05-31T15:39:12;6.03;;;2.90;;
17147;SDS011;8689;47.364;8.796;2023-05-31T15:41:42;9.13;;;3.45;;
17147;SDS011;8689;47.364;8.796;2023-05-31T15:44:09;6.15;;;3.35;;
17147;SDS011;8689;47.364;8.796;2023-05-31T15:46:38;5.30;;;3.45;;
17147;SDS011;8689;47.364;8.796;2023-05-31T15:49:09;8.82;;;3.22;;
17147;SDS011;8689;47.364;8.796;2023-05-31T15:51:38;8.82;;;3.53;;
17147;SDS011;8689;47.364;8.796;2023-05-31T15:54:13;9.57;;;4.05;;
17147;SDS011;8689;47.364;8.796;2023-05-31T15:56:41;4.90;;;3.38;;
17147;SDS011;8689;47.364;8.796;2023-05-31T15:59:13;7.63;;;3.65;;
17147;SDS011;8689;47.364;8.796;2023-05-31T16:01:41;9.45;;;4.00;;
17147;SDS011;8689;47.364;8.796;2023-05-31T16:04:10;5.55;;;3.15;;
17147;SDS011;8689;47.364;8.796;2023-05-31T16:06:44;4.78;;;3.15;;
17147;SDS011;8689;47.364;8.796;2023-05-31T16:09:14;12.70;;;3.15;;
17147;SDS011;8689;47.364;8.796;2023-05-31T16:11:41;4.95;;;2.90;;
17147;SDS011;8689;47.364;8.796;2023-05-31T16:14:08;6.80;;;3.45;;
17147;SDS011;8689;47.364;8.796;2023-05-31T16:16:36;5.10;;;3.17;;
17147;SDS011;8689;47.364;8.796;2023-05-31T16:19:03;11.75;;;3.45;;
17147;SDS011;8689;47.364;8.796;2023-05-31T16:21:41;8.90;;;3.30;;
17147;SDS011;8689;47.364;8.796;2023-05-31T16:24:08;9.27;;;3.40;;
17147;SDS011;8689;47.364;8.796;2023-05-31T16:26:37;12.68;;;3.55;;
17147;SDS011;8689;47.364;8.796;2023-05-31T16:29:04;5.55;;;3.40;;
17147;SDS011;8689;47.364;8.796;2023-05-31T16:31:31;8.10;;;4.07;;
17147;SDS011;8689;47.364;8.796;2023-05-31T16:33:58;12.30;;;4.30;;
17147;SDS011;8689;47.364;8.796;2023-05-31T16:36:26;10.07;;;3.58;;
17147;SDS011;8689;47.364;8.796;2023-05-31T16:38:54;4.65;;;3.63;;
17147;SDS011;8689;47.364;8.796;2023-05-31T16:41:21;6.00;;;3.25;;
17147;SDS011;8689;47.364;8.796;2023-05-31T16:43:48;12.20;;;4.05;;
17147;SDS011;8689;47.364;8.796;2023-05-31T16:46:21;8.23;;;3.90;;
17147;SDS011;8689;47.364;8.796;2023-05-31T16:48:48;7.53;;;3.30;;
17147;SDS011;8689;47.364;8.796;2023-05-31T16:51:16;13.10;;;3.90;;
17147;SDS011;8689;47.364;8.796;2023-05-31T16:53:43;9.13;;;3.70;;
17147;SDS011;8689;47.364;8.796;2023-05-31T16:56:12;9.60;;;3.47;;
17147;SDS011;8689;47.364;8.796;2023-05-31T16:58:41;9.07;;;3.35;;
17147;SDS011;8689;47.364;8.796;2023-05-31T17:01:09;6.78;;;3.63;;
17147;SDS011;8689;47.364;8.796;2023-05-31T17:03:36;5.82;;;3.58;;
17147;SDS011;8689;47.364;8.796;2023-05-31T17:06:03;6.88;;;3.22;;
17147;SDS011;8689;47.364;8.796;2023-05-31T17:08:30;11.70;;;4.03;;
17147;SDS011;8689;47.364;8.796;2023-05-31T17:10:57;5.90;;;3.38;;
17147;SDS011;8689;47.364;8.796;2023-05-31T17:13:26;11.30;;;3.53;;
17147;SDS011;8689;47.364;8.796;2023-05-31T17:15:53;13.50;;;3.28;;
17147;SDS011;8689;47.364;8.796;2023-05-31T17:18:20;7.75;;;3.10;;
17147;SDS011;8689;47.364;8.796;2023-05-31T17:20:47;8.23;;;4.20;;
17147;SDS011;8689;47.364;8.796;2023-05-31T17:23:16;6.53;;;3.80;;
17147;SDS011;8689;47.364;8.796;2023-05-31T17:25:42;8.90;;;3.97;;
17147;SDS011;8689;47.364;8.796;2023-05-31T17:28:10;8.38;;;3.47;;
17147;SDS011;8689;47.364;8.796;2023-05-31T17:30:38;5.63;;;3.53;;
17147;SDS011;8689;47.364;8.796;2023-05-31T17:33:33;4.97;;;3.17;;
17147;SDS011;8689;47.364;8.796;2023-05-31T17:36:02;7.32;;;3.28;;
17147;SDS011;8689;47.364;8.796;2023-05-31T17:38:30;8.98;;;3.88;;
17147;SDS011;8689;47.364;8.796;2023-05-31T17:40:57;7.18;;;3.50;;
17147;SDS011;8689;47.364;8.796;2023-05-31T17:43:24;8.63;;;3.47;;
17147;SDS011;8689;47.364;8.796;2023-05-31T17:45:53;10.95;;;3.47;;
17147;SDS011;8689;47.364;8.796;2023-05-31T17:48:21;10.10;;;2.90;;
17147;SDS011;8689;47.364;8.796;2023-05-31T17:50:48;12.53;;;3.30;;
17147;SDS011;8689;47.364;8.796;2023-05-31T17:53:15;8.40;;;3.40;;
17147;SDS011;8689;47.364;8.796;2023-05-31T17:55:43;4.73;;;3.37;;
17147;SDS011;8689;47.364;8.796;2023-05-31T17:58:17;5.83;;;3.30;;
17147;SDS011;8689;47.364;8.796;2023-05-31T18:00:48;4.97;;;3.00;;
17147;SDS011;8689;47.364;8.796;2023-05-31T18:03:19;8.03;;;3.47;;
17147;SDS011;8689;47.364;8.796;2023-05-31T18:05:53;8.40;;;3.77;;
17147;SDS011;8689;47.364;8.796;2023-05-31T18:08:21;6.57;;;3.70;;
17147;SDS011;8689;47.364;8.796;2023-05-31T18:10:48;6.17;;;3.43;;
17147;SDS011;8689;47.364;8.796;2023-05-31T18:13:15;5.70;;;3.27;;
17147;SDS011;8689;47.364;8.796;2023-05-31T18:15:43;9.00;;;3.73;;
17147;SDS011;8689;47.364;8.796;2023-05-31T18:18:10;7.63;;;3.40;;
17147;SDS011;8689;47.364;8.796;2023-05-31T18:20:39;6.73;;;3.23;;
17147;SDS011;8689;47.364;8.796;2023-05-31T18:23:10;7.60;;;3.47;;
17147;SDS011;8689;47.364;8.796;2023-05-31T18:25:43;8.03;;;3.50;;
17147;SDS011;8689;47.364;8.796;2023-05-31T18:28:10;9.40;;;4.33;;
17147;SDS011;8689;47.364;8.796;2023-05-31T18:30:38;7.60;;;3.57;;
17147;SDS011;8689;47.364;8.796;2023-05-31T18:33:08;6.60;;;3.33;;
17147;SDS011;8689;47.364;8.796;2023-05-31T18:35:35;5.73;;;3.67;;
17147;SDS011;8689;47.364;8.796;2023-05-31T18:38:07;5.33;;;3.33;;
17147;SDS011;8689;47.364;8.796;2023-05-31T18:40:34;5.90;;;3.87;;
17147;SDS011;8689;47.364;8.796;2023-05-31T18:43:02;8.73;;;4.03;;
17147;SDS011;8689;47.364;8.796;2023-05-31T18:45:31;5.43;;;3.47;;
17147;SDS011;8689;47.364;8.796;2023-05-31T18:47:58;15.57;;;4.67;;
17147;SDS011;8689;47.364;8.796;2023-05-31T18:50:31;11.10;;;3.90;;